sensor_id;sensor_type;location;lat;lon;timestamp;P1;durP1;ratioP1;P2;durP2;ratioP2
5871;SDS011;2962;51.312;7.378;2022-12-07T00:01:55;852.60;;;61.30;;
5871;SDS011;2962;51.312;7.378;2022-12-07T00:04:20;1083.13;;;79.83;;
5871;SDS011;2962;51.312;7.378;2022-12-07T00:06:46;974.13;;;86.70;;
5871;SDS011;2962;51.312;7.378;2022-12-07T00:09:16;1083.95;;;95.85;;
5871;SDS011;2962;51.312;7.378;2022-12-07T00:11:42;1002.90;;;78.55;;
5871;SDS011;2962;51.312;7.378;2022-12-07T00:14:10;878.05;;;61.88;;
5871;SDS011;2962;51.312;7.378;2022-12-07T00:16:38;982.28;;;77.30;;
5871;SDS011;2962;51.312;7.378;2022-12-07T00:19:03;1107.20;;;84.13;;
5871;SDS011;2962;51.312;7.378;2022-12-07T00:21:30;687.00;;;47.40;;
5871;SDS011;2962;51.312;7.378;2022-12-07T00:23:57;960.53;;;68.15;;
5871;SDS011;2962;51.312;7.378;2022-12-07T00:26:25;800.60;;;59.80;;
5871;SDS011;2962;51.312;7.378;2022-12-07T00:28:53;953.50;;;77.80;;
5871;SDS011;2962;51.312;7.378;2022-12-07T00:31:21;545.67;;;51.05;;
5871;SDS011;2962;51.312;7.378;2022-12-07T00:33:48;375.35;;;32.05;;
5871;SDS011;2962;51.312;7.378;2022-12-07T00:36:15;777.30;;;62.53;;
5871;SDS011;2962;51.312;7.378;2022-12-07T00:38:42;171.38;;;35.22;;
5871;SDS011;2962;51.312;7.378;2022-12-07T00:41:12;513.63;;;44.40;;
5871;SDS011;2962;51.312;7.378;2022-12-07T00:43:41;272.00;;;36.83;;
5871;SDS011;2962;51.312;7.378;2022-12-07T00:46:09;58.15;;;18.38;;
5871;SDS011;2962;51.312;7.378;2022-12-07T00:48:35;327.25;;;40.45;;
5871;SDS011;2962;51.312;7.378;2022-12-07T00:51:00;111.13;;;31.30;;
5871;SDS011;2962;51.312;7.378;2022-12-07T00:53:26;284.33;;;37.77;;
5871;SDS011;2962;51.312;7.378;2022-12-07T00:55:52;316.02;;;36.92;;
5871;SDS011;2962;51.312;7.378;2022-12-07T00:58:18;317.10;;;34.50;;
5871;SDS011;2962;51.312;7.378;2022-12-07T01:00:44;555.93;;;50.63;;
5871;SDS011;2962;51.312;7.378;2022-12-07T01:03:11;599.37;;;45.40;;
5871;SDS011;2962;51.312;7.378;2022-12-07T01:05:37;352.42;;;32.00;;
5871;SDS011;2962;51.312;7.378;2022-12-07T01:08:03;693.40;;;55.80;;
5871;SDS011;2962;51.312;7.378;2022-12-07T01:10:29;586.23;;;40.20;;
5871;SDS011;2962;51.312;7.378;2022-12-07T01:12:55;683.17;;;51.40;;
5871;SDS011;2962;51.312;7.378;2022-12-07T01:15:21;532.00;;;46.30;;
5871;SDS011;2962;51.312;7.378;2022-12-07T01:17:46;715.67;;;50.87;;
5871;SDS011;2962;51.312;7.378;2022-12-07T01:20:12;602.23;;;47.13;;
5871;SDS011;2962;51.312;7.378;2022-12-07T01:22:38;675.10;;;57.40;;
5871;SDS011;2962;51.312;7.378;2022-12-07T01:25:05;681.65;;;51.75;;
5871;SDS011;2962;51.312;7.378;2022-12-07T01:27:32;1001.90;;;79.50;;
5871;SDS011;2962;51.312;7.378;2022-12-07T01:29:58;432.17;;;35.33;;
5871;SDS011;2962;51.312;7.378;2022-12-07T01:32:23;798.43;;;58.93;;
5871;SDS011;2962;51.312;7.378;2022-12-07T01:34:48;772.63;;;60.23;;
5871;SDS011;2962;51.312;7.378;2022-12-07T01:37:13;672.90;;;53.93;;
5871;SDS011;2962;51.312;7.378;2022-12-07T01:39:39;730.07;;;60.50;;
5871;SDS011;2962;51.312;7.378;2022-12-07T01:42:04;584.10;;;44.17;;
5871;SDS011;2962;51.312;7.378;2022-12-07T01:44:29;806.97;;;56.23;;
5871;SDS011;2962;51.312;7.378;2022-12-07T01:47:00;539.33;;;39.85;;
5871;SDS011;2962;51.312;7.378;2022-12-07T01:49:46;689.80;;;48.95;;
5871;SDS011;2962;51.312;7.378;2022-12-07T01:52:15;616.58;;;45.03;;
5871;SDS011;2962;51.312;7.378;2022-12-07T01:54:52;554.80;;;33.35;;
5871;SDS011;2962;51.312;7.378;2022-12-07T01:57:19;783.97;;;54.80;;
5871;SDS011;2962;51.312;7.378;2022-12-07T01:59:47;1001.22;;;75.80;;
5871;SDS011;2962;51.312;7.378;2022-12-07T02:05:16;1128.07;;;80.75;;
5871;SDS011;2962;51.312;7.378;2022-12-07T02:07:41;1128.53;;;80.63;;
5871;SDS011;2962;51.312;7.378;2022-12-07T02:10:14;1031.17;;;76.17;;
5871;SDS011;2962;51.312;7.378;2022-12-07T02:12:41;1091.93;;;69.45;;
5871;SDS011;2962;51.312;7.378;2022-12-07T02:15:09;1144.35;;;86.55;;
5871;SDS011;2962;51.312;7.378;2022-12-07T02:26:02;992.85;;;69.82;;
5871;SDS011;2962;51.312;7.378;2022-12-07T02:31:34;741.40;;;56.83;;
5871;SDS011;2962;51.312;7.378;2022-12-07T02:34:16;702.70;;;54.15;;
5871;SDS011;2962;51.312;7.378;2022-12-07T02:36:51;722.78;;;50.97;;
5871;SDS011;2962;51.312;7.378;2022-12-07T02:39:22;880.25;;;66.15;;
5871;SDS011;2962;51.312;7.378;2022-12-07T02:41:56;701.55;;;44.58;;
5871;SDS011;2962;51.312;7.378;2022-12-07T02:44:27;1024.75;;;74.43;;
5871;SDS011;2962;51.312;7.378;2022-12-07T02:47:00;1037.50;;;72.47;;
5871;SDS011;2962;51.312;7.378;2022-12-07T02:49:30;1090.95;;;92.28;;
5871;SDS011;2962;51.312;7.378;2022-12-07T02:51:56;865.03;;;66.03;;
5871;SDS011;2962;51.312;7.378;2022-12-07T02:54:21;889.73;;;67.10;;
5871;SDS011;2962;51.312;7.378;2022-12-07T02:56:48;800.63;;;63.95;;
5871;SDS011;2962;51.312;7.378;2022-12-07T03:10:36;448.80;;;40.33;;
5871;SDS011;2962;51.312;7.378;2022-12-07T03:13:22;187.73;;;27.90;;
5871;SDS011;2962;51.312;7.378;2022-12-07T03:15:50;242.32;;;29.83;;
5871;SDS011;2962;51.312;7.378;2022-12-07T03:18:24;199.40;;;31.50;;
5871;SDS011;2962;51.312;7.378;2022-12-07T03:20:53;99.72;;;27.75;;
5871;SDS011;2962;51.312;7.378;2022-12-07T03:23:21;42.38;;;17.48;;
5871;SDS011;2962;51.312;7.378;2022-12-07T03:25:52;124.20;;;29.88;;
5871;SDS011;2962;51.312;7.378;2022-12-07T03:28:22;76.78;;;24.88;;
5871;SDS011;2962;51.312;7.378;2022-12-07T03:31:02;51.03;;;21.13;;
5871;SDS011;2962;51.312;7.378;2022-12-07T03:33:33;54.95;;;22.20;;
5871;SDS011;2962;51.312;7.378;2022-12-07T03:36:06;70.57;;;25.35;;
5871;SDS011;2962;51.312;7.378;2022-12-07T03:38:45;75.28;;;26.35;;
5871;SDS011;2962;51.312;7.378;2022-12-07T03:41:20;77.55;;;28.25;;
5871;SDS011;2962;51.312;7.378;2022-12-07T03:43:57;63.88;;;21.25;;
5871;SDS011;2962;51.312;7.378;2022-12-07T03:46:35;42.67;;;17.90;;
5871;SDS011;2962;51.312;7.378;2022-12-07T03:49:22;66.03;;;24.55;;
5871;SDS011;2962;51.312;7.378;2022-12-07T03:54:34;50.05;;;20.80;;
5871;SDS011;2962;51.312;7.378;2022-12-07T03:57:04;62.70;;;25.92;;
5871;SDS011;2962;51.312;7.378;2022-12-07T03:59:31;59.70;;;25.27;;
5871;SDS011;2962;51.312;7.378;2022-12-07T04:02:01;62.22;;;24.65;;
5871;SDS011;2962;51.312;7.378;2022-12-07T04:04:28;55.75;;;22.58;;
5871;SDS011;2962;51.312;7.378;2022-12-07T04:06:54;58.57;;;23.53;;
5871;SDS011;2962;51.312;7.378;2022-12-07T04:09:19;47.93;;;21.17;;
5871;SDS011;2962;51.312;7.378;2022-12-07T04:11:45;47.00;;;21.83;;
5871;SDS011;2962;51.312;7.378;2022-12-07T04:14:10;52.63;;;22.23;;
5871;SDS011;2962;51.312;7.378;2022-12-07T04:16:45;69.65;;;25.92;;
5871;SDS011;2962;51.312;7.378;2022-12-07T04:19:10;69.30;;;26.20;;
5871;SDS011;2962;51.312;7.378;2022-12-07T04:21:36;56.60;;;23.10;;
5871;SDS011;2962;51.312;7.378;2022-12-07T04:24:01;54.97;;;24.07;;
5871;SDS011;2962;51.312;7.378;2022-12-07T04:26:26;56.70;;;24.77;;
5871;SDS011;2962;51.312;7.378;2022-12-07T04:28:51;63.00;;;25.27;;
5871;SDS011;2962;51.312;7.378;2022-12-07T04:31:17;26.57;;;14.23;;
5871;SDS011;2962;51.312;7.378;2022-12-07T04:33:42;47.93;;;20.77;;
5871;SDS011;2962;51.312;7.378;2022-12-07T04:36:07;68.53;;;24.27;;
5871;SDS011;2962;51.312;7.378;2022-12-07T04:38:33;57.03;;;23.63;;
5871;SDS011;2962;51.312;7.378;2022-12-07T04:40:58;60.83;;;25.53;;
5871;SDS011;2962;51.312;7.378;2022-12-07T04:43:29;63.42;;;26.80;;
5871;SDS011;2962;51.312;7.378;2022-12-07T04:45:54;72.47;;;28.33;;
5871;SDS011;2962;51.312;7.378;2022-12-07T04:48:20;58.07;;;24.03;;
5871;SDS011;2962;51.312;7.378;2022-12-07T04:50:47;60.90;;;26.60;;
5871;SDS011;2962;51.312;7.378;2022-12-07T04:53:14;74.07;;;25.50;;
5871;SDS011;2962;51.312;7.378;2022-12-07T04:55:39;53.07;;;23.67;;
5871;SDS011;2962;51.312;7.378;2022-12-07T04:58:05;52.93;;;22.93;;
5871;SDS011;2962;51.312;7.378;2022-12-07T05:00:30;61.43;;;22.90;;
5871;SDS011;2962;51.312;7.378;2022-12-07T05:02:55;55.57;;;24.27;;
5871;SDS011;2962;51.312;7.378;2022-12-07T05:05:21;61.97;;;24.37;;
5871;SDS011;2962;51.312;7.378;2022-12-07T05:07:46;54.20;;;20.07;;
5871;SDS011;2962;51.312;7.378;2022-12-07T05:10:11;68.97;;;23.33;;
5871;SDS011;2962;51.312;7.378;2022-12-07T05:12:36;65.70;;;23.90;;
5871;SDS011;2962;51.312;7.378;2022-12-07T05:15:02;63.13;;;21.90;;
5871;SDS011;2962;51.312;7.378;2022-12-07T05:17:27;55.33;;;23.60;;
5871;SDS011;2962;51.312;7.378;2022-12-07T05:19:53;39.57;;;18.20;;
5871;SDS011;2962;51.312;7.378;2022-12-07T05:22:18;48.97;;;21.00;;
5871;SDS011;2962;51.312;7.378;2022-12-07T05:24:43;60.77;;;22.97;;
5871;SDS011;2962;51.312;7.378;2022-12-07T05:27:08;58.57;;;22.87;;
5871;SDS011;2962;51.312;7.378;2022-12-07T05:29:34;75.53;;;24.20;;
5871;SDS011;2962;51.312;7.378;2022-12-07T05:31:59;53.20;;;21.07;;
5871;SDS011;2962;51.312;7.378;2022-12-07T05:34:24;51.17;;;23.40;;
5871;SDS011;2962;51.312;7.378;2022-12-07T05:36:49;49.03;;;20.63;;
5871;SDS011;2962;51.312;7.378;2022-12-07T05:39:15;56.93;;;24.00;;
5871;SDS011;2962;51.312;7.378;2022-12-07T05:41:40;63.97;;;23.50;;
5871;SDS011;2962;51.312;7.378;2022-12-07T05:44:24;48.95;;;20.80;;
5871;SDS011;2962;51.312;7.378;2022-12-07T05:46:49;54.83;;;23.40;;
5871;SDS011;2962;51.312;7.378;2022-12-07T05:49:15;56.83;;;23.77;;
5871;SDS011;2962;51.312;7.378;2022-12-07T05:51:40;55.97;;;23.20;;
5871;SDS011;2962;51.312;7.378;2022-12-07T05:54:05;36.17;;;15.87;;
5871;SDS011;2962;51.312;7.378;2022-12-07T05:56:31;69.60;;;25.63;;
5871;SDS011;2962;51.312;7.378;2022-12-07T05:58:56;52.03;;;22.20;;
5871;SDS011;2962;51.312;7.378;2022-12-07T06:01:40;48.30;;;21.65;;
5871;SDS011;2962;51.312;7.378;2022-12-07T06:04:06;66.60;;;22.15;;
5871;SDS011;2962;51.312;7.378;2022-12-07T06:06:32;56.40;;;25.83;;
5871;SDS011;2962;51.312;7.378;2022-12-07T06:08:57;51.37;;;25.73;;
5871;SDS011;2962;51.312;7.378;2022-12-07T06:11:23;98.80;;;36.53;;
5871;SDS011;2962;51.312;7.378;2022-12-07T06:14:06;69.93;;;28.67;;
5871;SDS011;2962;51.312;7.378;2022-12-07T06:16:32;57.73;;;24.13;;
5871;SDS011;2962;51.312;7.378;2022-12-07T06:18:57;58.30;;;21.00;;
5871;SDS011;2962;51.312;7.378;2022-12-07T06:21:23;47.83;;;19.87;;
5871;SDS011;2962;51.312;7.378;2022-12-07T06:23:50;51.72;;;21.83;;
5871;SDS011;2962;51.312;7.378;2022-12-07T06:26:15;51.77;;;24.00;;
5871;SDS011;2962;51.312;7.378;2022-12-07T06:28:41;59.73;;;23.70;;
5871;SDS011;2962;51.312;7.378;2022-12-07T06:31:06;57.40;;;22.20;;
5871;SDS011;2962;51.312;7.378;2022-12-07T06:33:32;58.77;;;22.60;;
5871;SDS011;2962;51.312;7.378;2022-12-07T06:35:58;55.50;;;23.20;;
5871;SDS011;2962;51.312;7.378;2022-12-07T06:38:23;45.63;;;19.90;;
5871;SDS011;2962;51.312;7.378;2022-12-07T06:40:49;48.53;;;22.15;;
5871;SDS011;2962;51.312;7.378;2022-12-07T06:43:14;41.57;;;18.90;;
5871;SDS011;2962;51.312;7.378;2022-12-07T06:45:40;62.17;;;23.13;;
5871;SDS011;2962;51.312;7.378;2022-12-07T06:48:06;51.27;;;21.57;;
5871;SDS011;2962;51.312;7.378;2022-12-07T06:50:31;56.63;;;24.30;;
5871;SDS011;2962;51.312;7.378;2022-12-07T06:52:56;61.97;;;27.20;;
5871;SDS011;2962;51.312;7.378;2022-12-07T06:55:22;54.97;;;22.27;;
5871;SDS011;2962;51.312;7.378;2022-12-07T06:57:47;56.43;;;22.90;;
5871;SDS011;2962;51.312;7.378;2022-12-07T07:00:12;48.97;;;20.80;;
5871;SDS011;2962;51.312;7.378;2022-12-07T07:02:38;53.23;;;23.33;;
5871;SDS011;2962;51.312;7.378;2022-12-07T07:05:03;55.73;;;24.00;;
5871;SDS011;2962;51.312;7.378;2022-12-07T07:07:29;52.77;;;20.87;;
5871;SDS011;2962;51.312;7.378;2022-12-07T07:09:54;56.83;;;22.27;;
5871;SDS011;2962;51.312;7.378;2022-12-07T07:12:19;60.33;;;23.83;;
5871;SDS011;2962;51.312;7.378;2022-12-07T07:14:45;52.03;;;24.40;;
5871;SDS011;2962;51.312;7.378;2022-12-07T07:17:10;45.53;;;22.00;;
5871;SDS011;2962;51.312;7.378;2022-12-07T07:19:35;56.53;;;22.73;;
5871;SDS011;2962;51.312;7.378;2022-12-07T07:22:02;55.38;;;24.25;;
5871;SDS011;2962;51.312;7.378;2022-12-07T07:24:28;43.33;;;20.03;;
5871;SDS011;2962;51.312;7.378;2022-12-07T07:26:53;45.73;;;21.87;;
5871;SDS011;2962;51.312;7.378;2022-12-07T07:29:18;41.53;;;19.43;;
5871;SDS011;2962;51.312;7.378;2022-12-07T07:31:43;46.13;;;20.17;;
5871;SDS011;2962;51.312;7.378;2022-12-07T07:34:09;47.90;;;20.67;;
5871;SDS011;2962;51.312;7.378;2022-12-07T07:36:34;50.97;;;21.57;;
5871;SDS011;2962;51.312;7.378;2022-12-07T07:38:59;45.67;;;21.33;;
5871;SDS011;2962;51.312;7.378;2022-12-07T07:41:24;46.40;;;20.57;;
5871;SDS011;2962;51.312;7.378;2022-12-07T07:43:50;53.60;;;23.83;;
5871;SDS011;2962;51.312;7.378;2022-12-07T07:46:15;31.50;;;15.40;;
5871;SDS011;2962;51.312;7.378;2022-12-07T07:48:40;45.80;;;20.57;;
5871;SDS011;2962;51.312;7.378;2022-12-07T07:51:06;50.07;;;22.90;;
5871;SDS011;2962;51.312;7.378;2022-12-07T07:53:32;48.03;;;22.02;;
5871;SDS011;2962;51.312;7.378;2022-12-07T07:55:58;46.40;;;22.87;;
5871;SDS011;2962;51.312;7.378;2022-12-07T07:58:23;48.97;;;21.30;;
5871;SDS011;2962;51.312;7.378;2022-12-07T08:00:48;58.03;;;22.17;;
5871;SDS011;2962;51.312;7.378;2022-12-07T08:03:14;46.30;;;21.17;;
5871;SDS011;2962;51.312;7.378;2022-12-07T08:05:39;49.10;;;22.00;;
5871;SDS011;2962;51.312;7.378;2022-12-07T08:08:04;49.30;;;20.77;;
5871;SDS011;2962;51.312;7.378;2022-12-07T08:10:30;35.57;;;15.23;;
5871;SDS011;2962;51.312;7.378;2022-12-07T08:12:57;31.52;;;18.25;;
5871;SDS011;2962;51.312;7.378;2022-12-07T08:15:45;42.58;;;16.38;;
5871;SDS011;2962;51.312;7.378;2022-12-07T08:18:12;36.03;;;18.80;;
5871;SDS011;2962;51.312;7.378;2022-12-07T08:20:38;39.13;;;17.43;;
5871;SDS011;2962;51.312;7.378;2022-12-07T08:23:04;37.13;;;18.67;;
5871;SDS011;2962;51.312;7.378;2022-12-07T08:25:32;36.78;;;17.98;;
5871;SDS011;2962;51.312;7.378;2022-12-07T08:27:57;32.97;;;16.83;;
5871;SDS011;2962;51.312;7.378;2022-12-07T08:30:23;45.40;;;19.73;;
5871;SDS011;2962;51.312;7.378;2022-12-07T08:32:48;40.00;;;18.93;;
5871;SDS011;2962;51.312;7.378;2022-12-07T08:35:14;30.73;;;16.50;;
5871;SDS011;2962;51.312;7.378;2022-12-07T08:37:40;40.95;;;18.33;;
5871;SDS011;2962;51.312;7.378;2022-12-07T08:40:06;34.90;;;19.87;;
5871;SDS011;2962;51.312;7.378;2022-12-07T08:42:33;46.72;;;20.70;;
5871;SDS011;2962;51.312;7.378;2022-12-07T08:45:05;45.05;;;19.75;;
5871;SDS011;2962;51.312;7.378;2022-12-07T08:47:32;39.33;;;18.23;;
5871;SDS011;2962;51.312;7.378;2022-12-07T08:49:58;44.45;;;20.23;;
5871;SDS011;2962;51.312;7.378;2022-12-07T08:52:28;38.72;;;16.52;;
5871;SDS011;2962;51.312;7.378;2022-12-07T08:54:57;41.75;;;18.17;;
5871;SDS011;2962;51.312;7.378;2022-12-07T08:57:24;33.08;;;15.93;;
5871;SDS011;2962;51.312;7.378;2022-12-07T08:59:51;37.13;;;14.90;;
5871;SDS011;2962;51.312;7.378;2022-12-07T09:02:16;29.03;;;16.70;;
5871;SDS011;2962;51.312;7.378;2022-12-07T09:04:42;35.47;;;18.90;;
5871;SDS011;2962;51.312;7.378;2022-12-07T09:07:07;41.03;;;17.73;;
5871;SDS011;2962;51.312;7.378;2022-12-07T09:09:32;32.97;;;16.87;;
5871;SDS011;2962;51.312;7.378;2022-12-07T09:11:58;35.40;;;18.63;;
5871;SDS011;2962;51.312;7.378;2022-12-07T09:14:23;21.13;;;13.10;;
5871;SDS011;2962;51.312;7.378;2022-12-07T09:16:48;35.73;;;17.07;;
5871;SDS011;2962;51.312;7.378;2022-12-07T09:19:13;38.13;;;19.20;;
5871;SDS011;2962;51.312;7.378;2022-12-07T09:21:39;40.23;;;18.87;;
5871;SDS011;2962;51.312;7.378;2022-12-07T09:24:04;34.17;;;17.13;;
5871;SDS011;2962;51.312;7.378;2022-12-07T09:26:30;33.27;;;17.07;;
5871;SDS011;2962;51.312;7.378;2022-12-07T09:28:55;26.37;;;15.10;;
5871;SDS011;2962;51.312;7.378;2022-12-07T09:31:20;30.97;;;16.07;;
5871;SDS011;2962;51.312;7.378;2022-12-07T09:33:45;29.17;;;15.40;;
5871;SDS011;2962;51.312;7.378;2022-12-07T09:36:11;27.30;;;12.47;;
5871;SDS011;2962;51.312;7.378;2022-12-07T09:38:36;30.60;;;17.33;;
5871;SDS011;2962;51.312;7.378;2022-12-07T09:41:05;31.93;;;16.77;;
5871;SDS011;2962;51.312;7.378;2022-12-07T09:43:31;40.58;;;17.55;;
5871;SDS011;2962;51.312;7.378;2022-12-07T09:45:59;38.10;;;18.38;;
5871;SDS011;2962;51.312;7.378;2022-12-07T09:48:34;32.73;;;15.77;;
5871;SDS011;2962;51.312;7.378;2022-12-07T09:51:09;36.88;;;16.00;;
5871;SDS011;2962;51.312;7.378;2022-12-07T09:53:42;26.17;;;14.10;;
5871;SDS011;2962;51.312;7.378;2022-12-07T09:56:10;44.63;;;17.55;;
5871;SDS011;2962;51.312;7.378;2022-12-07T09:58:40;35.50;;;15.90;;
5871;SDS011;2962;51.312;7.378;2022-12-07T10:03:32;30.93;;;15.33;;
5871;SDS011;2962;51.312;7.378;2022-12-07T10:05:57;31.87;;;13.33;;
5871;SDS011;2962;51.312;7.378;2022-12-07T10:08:24;29.27;;;16.27;;
5871;SDS011;2962;51.312;7.378;2022-12-07T10:10:54;36.17;;;15.68;;
5871;SDS011;2962;51.312;7.378;2022-12-07T10:13:43;26.38;;;15.13;;
5871;SDS011;2962;51.312;7.378;2022-12-07T10:19:18;30.58;;;15.75;;
5871;SDS011;2962;51.312;7.378;2022-12-07T10:24:37;23.55;;;14.63;;
5871;SDS011;2962;51.312;7.378;2022-12-07T10:27:20;31.83;;;15.93;;
5871;SDS011;2962;51.312;7.378;2022-12-07T10:29:51;21.30;;;12.40;;
5871;SDS011;2962;51.312;7.378;2022-12-07T10:34:42;35.57;;;15.10;;
5871;SDS011;2962;51.312;7.378;2022-12-07T10:39:40;30.97;;;16.23;;
5871;SDS011;2962;51.312;7.378;2022-12-07T10:42:09;28.60;;;14.80;;
5871;SDS011;2962;51.312;7.378;2022-12-07T10:44:42;29.90;;;15.48;;
5871;SDS011;2962;51.312;7.378;2022-12-07T10:47:22;26.50;;;13.50;;
5871;SDS011;2962;51.312;7.378;2022-12-07T10:53:00;18.98;;;9.95;;
5871;SDS011;2962;51.312;7.378;2022-12-07T10:58:53;20.88;;;12.35;;
5871;SDS011;2962;51.312;7.378;2022-12-07T11:01:34;21.25;;;11.35;;
5871;SDS011;2962;51.312;7.378;2022-12-07T11:10:09;9.37;;;8.37;;
5871;SDS011;2962;51.312;7.378;2022-12-07T11:15:58;21.25;;;8.70;;
5871;SDS011;2962;51.312;7.378;2022-12-07T11:18:26;10.05;;;8.20;;
5871;SDS011;2962;51.312;7.378;2022-12-07T11:24:02;9.65;;;7.85;;
5871;SDS011;2962;51.312;7.378;2022-12-07T11:26:36;10.05;;;8.00;;
5871;SDS011;2962;51.312;7.378;2022-12-07T11:29:25;18.48;;;9.43;;
5871;SDS011;2962;51.312;7.378;2022-12-07T11:32:04;16.42;;;9.57;;
5871;SDS011;2962;51.312;7.378;2022-12-07T11:37:43;10.50;;;7.53;;
5871;SDS011;2962;51.312;7.378;2022-12-07T11:40:18;10.85;;;8.38;;
5871;SDS011;2962;51.312;7.378;2022-12-07T11:42:51;14.10;;;8.60;;
5871;SDS011;2962;51.312;7.378;2022-12-07T11:45:31;27.15;;;11.82;;
5871;SDS011;2962;51.312;7.378;2022-12-07T11:48:03;18.48;;;10.48;;
5871;SDS011;2962;51.312;7.378;2022-12-07T11:50:36;21.10;;;10.50;;
5871;SDS011;2962;51.312;7.378;2022-12-07T11:58:33;18.77;;;11.77;;
5871;SDS011;2962;51.312;7.378;2022-12-07T12:03:34;19.05;;;11.30;;
5871;SDS011;2962;51.312;7.378;2022-12-07T12:06:05;27.48;;;14.68;;
5871;SDS011;2962;51.312;7.378;2022-12-07T12:08:31;23.80;;;13.80;;
5871;SDS011;2962;51.312;7.378;2022-12-07T12:11:25;14.13;;;10.50;;
5871;SDS011;2962;51.312;7.378;2022-12-07T12:13:59;17.80;;;11.75;;
5871;SDS011;2962;51.312;7.378;2022-12-07T12:17:12;14.55;;;9.10;;
5871;SDS011;2962;51.312;7.378;2022-12-07T12:20:02;15.25;;;11.77;;
5871;SDS011;2962;51.312;7.378;2022-12-07T12:22:33;15.43;;;11.23;;
5871;SDS011;2962;51.312;7.378;2022-12-07T12:25:04;19.02;;;14.10;;
5871;SDS011;2962;51.312;7.378;2022-12-07T12:27:33;19.83;;;12.85;;
5871;SDS011;2962;51.312;7.378;2022-12-07T12:30:03;23.10;;;14.73;;
5871;SDS011;2962;51.312;7.378;2022-12-07T12:32:41;22.08;;;14.07;;
5871;SDS011;2962;51.312;7.378;2022-12-07T12:40:58;21.15;;;14.60;;
5871;SDS011;2962;51.312;7.378;2022-12-07T12:51:41;20.13;;;14.32;;
5871;SDS011;2962;51.312;7.378;2022-12-07T12:54:15;15.82;;;13.55;;
5871;SDS011;2962;51.312;7.378;2022-12-07T12:56:43;20.13;;;12.07;;
5871;SDS011;2962;51.312;7.378;2022-12-07T12:59:30;21.23;;;13.38;;
5871;SDS011;2962;51.312;7.378;2022-12-07T13:15:45;32.45;;;10.82;;
5871;SDS011;2962;51.312;7.378;2022-12-07T13:18:25;13.88;;;10.82;;
5871;SDS011;2962;51.312;7.378;2022-12-07T13:21:00;18.15;;;10.20;;
5871;SDS011;2962;51.312;7.378;2022-12-07T13:28:52;10.93;;;9.20;;
5871;SDS011;2962;51.312;7.378;2022-12-07T13:31:34;8.00;;;7.15;;
5871;SDS011;2962;51.312;7.378;2022-12-07T13:34:05;13.75;;;9.05;;
5871;SDS011;2962;51.312;7.378;2022-12-07T13:36:50;19.38;;;10.60;;
5871;SDS011;2962;51.312;7.378;2022-12-07T13:39:17;7.00;;;6.30;;
5871;SDS011;2962;51.312;7.378;2022-12-07T13:41:44;13.50;;;8.40;;
5871;SDS011;2962;51.312;7.378;2022-12-07T13:44:15;21.52;;;10.20;;
5871;SDS011;2962;51.312;7.378;2022-12-07T13:49:27;18.50;;;9.25;;
5871;SDS011;2962;51.312;7.378;2022-12-07T13:51:55;18.08;;;10.50;;
5871;SDS011;2962;51.312;7.378;2022-12-07T13:55:05;12.48;;;10.20;;
5871;SDS011;2962;51.312;7.378;2022-12-07T13:57:39;31.73;;;11.82;;
5871;SDS011;2962;51.312;7.378;2022-12-07T14:00:06;18.25;;;10.05;;
5871;SDS011;2962;51.312;7.378;2022-12-07T14:02:57;28.98;;;12.93;;
5871;SDS011;2962;51.312;7.378;2022-12-07T14:05:25;13.88;;;5.85;;
5871;SDS011;2962;51.312;7.378;2022-12-07T14:12:55;14.52;;;9.43;;
5871;SDS011;2962;51.312;7.378;2022-12-07T14:15:23;12.70;;;9.75;;
5871;SDS011;2962;51.312;7.378;2022-12-07T14:17:53;12.60;;;10.00;;
5871;SDS011;2962;51.312;7.378;2022-12-07T14:20:35;11.70;;;10.18;;
5871;SDS011;2962;51.312;7.378;2022-12-07T14:23:01;13.63;;;10.00;;
5871;SDS011;2962;51.312;7.378;2022-12-07T14:25:43;26.45;;;11.13;;
5871;SDS011;2962;51.312;7.378;2022-12-07T14:28:10;19.17;;;9.10;;
5871;SDS011;2962;51.312;7.378;2022-12-07T14:30:51;14.18;;;9.77;;
5871;SDS011;2962;51.312;7.378;2022-12-07T14:33:22;7.63;;;6.90;;
5871;SDS011;2962;51.312;7.378;2022-12-07T14:35:49;6.20;;;5.00;;
5871;SDS011;2962;51.312;7.378;2022-12-07T14:38:14;11.53;;;6.10;;
5871;SDS011;2962;51.312;7.378;2022-12-07T14:40:40;7.10;;;3.70;;
5871;SDS011;2962;51.312;7.378;2022-12-07T14:43:08;2.90;;;2.80;;
5871;SDS011;2962;51.312;7.378;2022-12-07T14:45:36;2.75;;;2.65;;
5871;SDS011;2962;51.312;7.378;2022-12-07T14:48:02;11.70;;;3.80;;
5871;SDS011;2962;51.312;7.378;2022-12-07T14:50:27;22.17;;;5.83;;
5871;SDS011;2962;51.312;7.378;2022-12-07T14:52:58;6.17;;;4.60;;
5871;SDS011;2962;51.312;7.378;2022-12-07T14:55:30;7.20;;;4.00;;
5871;SDS011;2962;51.312;7.378;2022-12-07T14:57:56;6.15;;;5.03;;
5871;SDS011;2962;51.312;7.378;2022-12-07T15:00:24;5.82;;;4.55;;
5871;SDS011;2962;51.312;7.378;2022-12-07T15:02:50;9.57;;;5.28;;
5871;SDS011;2962;51.312;7.378;2022-12-07T15:05:17;5.90;;;4.18;;
5871;SDS011;2962;51.312;7.378;2022-12-07T15:07:43;14.75;;;6.28;;
5871;SDS011;2962;51.312;7.378;2022-12-07T15:10:20;7.65;;;4.65;;
5871;SDS011;2962;51.312;7.378;2022-12-07T15:12:45;8.63;;;5.20;;
5871;SDS011;2962;51.312;7.378;2022-12-07T15:15:11;11.70;;;4.70;;
5871;SDS011;2962;51.312;7.378;2022-12-07T15:17:37;14.50;;;8.02;;
5871;SDS011;2962;51.312;7.378;2022-12-07T15:20:02;7.27;;;3.93;;
5871;SDS011;2962;51.312;7.378;2022-12-07T15:22:28;9.20;;;5.97;;
5871;SDS011;2962;51.312;7.378;2022-12-07T15:24:56;11.80;;;5.22;;
5871;SDS011;2962;51.312;7.378;2022-12-07T15:27:21;10.10;;;5.73;;
5871;SDS011;2962;51.312;7.378;2022-12-07T15:29:46;14.87;;;5.30;;
5871;SDS011;2962;51.312;7.378;2022-12-07T15:32:11;12.17;;;6.57;;
5871;SDS011;2962;51.312;7.378;2022-12-07T15:34:37;8.60;;;5.80;;
5871;SDS011;2962;51.312;7.378;2022-12-07T15:37:02;8.57;;;5.70;;
5871;SDS011;2962;51.312;7.378;2022-12-07T15:39:28;6.20;;;5.63;;
5871;SDS011;2962;51.312;7.378;2022-12-07T15:41:53;15.70;;;6.77;;
5871;SDS011;2962;51.312;7.378;2022-12-07T15:44:18;8.70;;;6.07;;
5871;SDS011;2962;51.312;7.378;2022-12-07T15:47:03;9.13;;;5.50;;
5871;SDS011;2962;51.312;7.378;2022-12-07T15:49:29;9.55;;;5.28;;
5871;SDS011;2962;51.312;7.378;2022-12-07T15:51:54;17.13;;;6.60;;
5871;SDS011;2962;51.312;7.378;2022-12-07T15:54:27;12.67;;;5.73;;
5871;SDS011;2962;51.312;7.378;2022-12-07T15:56:53;10.90;;;6.07;;
5871;SDS011;2962;51.312;7.378;2022-12-07T15:59:19;7.15;;;5.03;;
5871;SDS011;2962;51.312;7.378;2022-12-07T16:01:44;18.63;;;5.80;;
5871;SDS011;2962;51.312;7.378;2022-12-07T16:04:10;19.60;;;6.53;;
5871;SDS011;2962;51.312;7.378;2022-12-07T16:06:35;12.50;;;6.83;;
5871;SDS011;2962;51.312;7.378;2022-12-07T16:09:01;10.20;;;6.90;;
5871;SDS011;2962;51.312;7.378;2022-12-07T16:11:26;9.57;;;6.47;;
5871;SDS011;2962;51.312;7.378;2022-12-07T16:13:52;12.50;;;6.93;;
5871;SDS011;2962;51.312;7.378;2022-12-07T16:16:17;15.10;;;7.00;;
5871;SDS011;2962;51.312;7.378;2022-12-07T16:18:44;12.05;;;6.15;;
5871;SDS011;2962;51.312;7.378;2022-12-07T16:21:11;7.07;;;5.00;;
5871;SDS011;2962;51.312;7.378;2022-12-07T16:23:38;21.50;;;6.35;;
5871;SDS011;2962;51.312;7.378;2022-12-07T16:26:04;14.20;;;7.20;;
5871;SDS011;2962;51.312;7.378;2022-12-07T16:28:30;11.32;;;7.00;;
5871;SDS011;2962;51.312;7.378;2022-12-07T16:31:02;8.70;;;6.10;;
5871;SDS011;2962;51.312;7.378;2022-12-07T16:33:39;11.15;;;5.28;;
5871;SDS011;2962;51.312;7.378;2022-12-07T16:36:05;16.83;;;6.88;;
5871;SDS011;2962;51.312;7.378;2022-12-07T16:38:32;19.42;;;6.00;;
5871;SDS011;2962;51.312;7.378;2022-12-07T16:40:58;11.35;;;6.85;;
5871;SDS011;2962;51.312;7.378;2022-12-07T16:43:24;14.27;;;5.50;;
5871;SDS011;2962;51.312;7.378;2022-12-07T16:45:49;11.23;;;6.43;;
5871;SDS011;2962;51.312;7.378;2022-12-07T16:48:15;9.13;;;6.57;;
5871;SDS011;2962;51.312;7.378;2022-12-07T16:50:41;23.57;;;7.33;;